createdAt,value
2023-02-09T00:00:12.936Z,36.70
2023-02-09T00:01:12.908Z,36.20
2023-02-09T00:02:13.004Z,35.00
2023-02-09T00:03:12.899Z,34.60
2023-02-09T00:04:12.899Z,35.80
2023-02-09T00:05:12.903Z,32.10
2023-02-09T00:06:12.864Z,32.10
2023-02-09T00:07:12.818Z,33.50
2023-02-09T00:08:12.841Z,37.60
2023-02-09T00:09:12.813Z,31.70
2023-02-09T00:10:12.812Z,39.10
2023-02-09T00:11:12.767Z,38.00
2023-02-09T00:12:12.788Z,35.40
2023-02-09T00:13:12.753Z,36.80
2023-02-09T00:14:12.801Z,35.60
2023-02-09T00:15:12.729Z,38.00
2023-02-09T00:16:12.756Z,35.20
2023-02-09T00:17:12.687Z,31.30
2023-02-09T00:18:12.714Z,40.70
2023-02-09T00:19:12.665Z,38.70
2023-02-09T00:20:12.707Z,40.70
2023-02-09T00:21:12.652Z,31.10
2023-02-09T00:22:12.653Z,35.00
2023-02-09T00:23:12.622Z,41.00
2023-02-09T00:24:12.637Z,36.80
2023-02-09T00:25:12.604Z,37.10
2023-02-09T00:26:12.624Z,38.40
2023-02-09T00:27:12.562Z,38.40
2023-02-09T00:28:12.614Z,38.90
2023-02-09T00:29:12.542Z,38.20
2023-02-09T00:30:12.579Z,39.10
2023-02-09T00:31:12.638Z,42.90
2023-02-09T00:32:12.586Z,40.40
2023-02-09T00:33:12.497Z,39.40
2023-02-09T00:34:12.517Z,38.20
2023-02-09T00:35:12.490Z,36.00
2023-02-09T00:36:12.492Z,37.00
2023-02-09T00:37:12.440Z,35.60
2023-02-09T00:38:12.476Z,34.60
2023-02-09T00:39:12.442Z,37.00
2023-02-09T00:40:12.446Z,34.90
2023-02-09T00:41:12.412Z,32.40
2023-02-09T00:42:12.377Z,34.10
2023-02-09T00:43:12.396Z,34.60
2023-02-09T00:44:12.349Z,34.20
2023-02-09T00:45:12.387Z,36.80
2023-02-09T00:46:12.374Z,37.60
2023-02-09T00:47:12.342Z,33.90
2023-02-09T00:48:12.301Z,37.00
2023-02-09T00:49:12.306Z,37.60
2023-02-09T00:50:12.275Z,34.60
2023-02-09T00:51:12.315Z,36.70
2023-02-09T00:52:12.257Z,35.20
2023-02-09T00:53:12.284Z,45.60
2023-02-09T00:54:12.214Z,48.70
2023-02-09T00:55:12.234Z,62.40
2023-02-09T00:56:12.200Z,63.10
2023-02-09T00:57:12.203Z,67.40
2023-02-09T00:58:12.182Z,63.50
2023-02-09T00:59:12.210Z,63.00
2023-02-09T01:00:12.156Z,59.10
2023-02-09T01:01:12.278Z,61.80
2023-02-09T01:02:12.153Z,55.20
2023-02-09T01:03:12.140Z,50.50
2023-02-09T01:04:12.344Z,48.00
2023-02-09T01:05:12.103Z,42.10
2023-02-09T01:06:12.061Z,37.00
2023-02-09T01:07:12.088Z,38.10
2023-02-09T01:08:12.049Z,44.20
2023-02-09T01:09:12.093Z,44.80
2023-02-09T01:10:12.043Z,40.80
2023-02-09T01:11:12.042Z,38.70
2023-02-09T01:12:11.974Z,39.50
2023-02-09T01:13:12.017Z,37.60
2023-02-09T01:14:11.988Z,36.00
2023-02-09T01:15:11.976Z,33.70
2023-02-09T01:16:11.956Z,35.50
2023-02-09T01:17:11.958Z,38.10
2023-02-09T01:18:11.920Z,35.00
2023-02-09T01:19:11.953Z,33.00
2023-02-09T01:20:11.908Z,33.50
2023-02-09T01:21:11.904Z,33.50
2023-02-09T01:22:11.856Z,35.30
2023-02-09T01:23:11.891Z,36.80
2023-02-09T01:24:11.817Z,32.40
2023-02-09T01:25:11.864Z,36.00
2023-02-09T01:26:11.821Z,32.50
2023-02-09T01:27:11.819Z,33.20
2023-02-09T01:28:11.842Z,33.50
2023-02-09T01:29:11.816Z,34.40
2023-02-09T01:30:11.766Z,33.90
2023-02-09T01:31:11.864Z,34.40
2023-02-09T01:32:11.780Z,32.80
2023-02-09T01:33:11.758Z,35.30
2023-02-09T01:34:11.711Z,32.60
2023-02-09T01:35:11.728Z,34.30
2023-02-09T01:36:11.682Z,35.60
2023-02-09T01:37:11.726Z,34.20
2023-02-09T01:38:11.670Z,36.20
2023-02-09T01:39:11.662Z,34.00
2023-02-09T01:40:11.660Z,33.00
2023-02-09T01:41:11.653Z,33.00
2023-02-09T01:42:11.620Z,36.40
2023-02-09T01:43:11.637Z,37.20
2023-02-09T01:44:11.594Z,33.10
2023-02-09T01:45:11.588Z,33.60
2023-02-09T01:46:11.583Z,32.90
2023-02-09T01:47:11.571Z,34.90
2023-02-09T01:48:11.557Z,33.50
2023-02-09T01:49:11.563Z,30.20
2023-02-09T01:50:11.565Z,32.90
2023-02-09T01:51:11.561Z,33.50
2023-02-09T01:52:11.501Z,32.90
2023-02-09T01:53:11.492Z,33.90
2023-02-09T01:54:11.453Z,32.00
2023-02-09T01:55:11.477Z,32.90
2023-02-09T01:56:11.448Z,32.60
2023-02-09T01:57:11.439Z,31.50
2023-02-09T01:58:11.412Z,32.20
2023-02-09T01:59:11.413Z,31.30
2023-02-09T02:00:11.389Z,31.40
2023-02-09T02:01:11.479Z,31.90
2023-02-09T02:02:11.375Z,31.20
2023-02-09T02:03:11.364Z,31.80
2023-02-09T02:04:11.350Z,32.10
2023-02-09T02:05:11.339Z,32.80
2023-02-09T02:06:11.296Z,29.20
2023-02-09T02:07:11.328Z,34.00
2023-02-09T02:08:11.298Z,30.90
2023-02-09T02:09:11.309Z,30.80
2023-02-09T02:10:11.254Z,30.90
2023-02-09T02:11:11.264Z,32.00
2023-02-09T02:12:11.222Z,33.10
2023-02-09T02:13:11.262Z,32.00
2023-02-09T02:14:11.207Z,31.20
2023-02-09T02:15:11.278Z,31.70
2023-02-09T02:16:11.272Z,29.30
2023-02-09T02:17:11.181Z,33.50
2023-02-09T02:18:11.187Z,31.90
2023-02-09T02:19:11.164Z,34.50
2023-02-09T02:20:11.128Z,30.50
2023-02-09T02:21:11.139Z,31.40
2023-02-09T02:22:11.088Z,31.10
2023-02-09T02:23:11.109Z,31.20
2023-02-09T02:24:11.093Z,32.50
2023-02-09T02:25:11.084Z,31.40
2023-02-09T02:26:11.038Z,31.90
2023-02-09T02:27:11.043Z,34.30
2023-02-09T02:28:11.058Z,31.00
2023-02-09T02:29:11.075Z,35.10
2023-02-09T02:30:11.005Z,34.20
2023-02-09T02:31:11.108Z,35.30
2023-02-09T02:32:10.973Z,36.10
2023-02-09T02:33:10.974Z,41.70
2023-02-09T02:34:10.952Z,39.30
2023-02-09T02:35:11.013Z,33.30
2023-02-09T02:36:10.911Z,33.40
2023-02-09T02:37:10.920Z,34.50
2023-02-09T02:38:10.887Z,35.90
2023-02-09T02:39:10.906Z,32.20
2023-02-09T02:40:10.914Z,32.90
2023-02-09T02:41:10.875Z,31.60
2023-02-09T02:42:10.833Z,32.40
2023-02-09T02:43:10.860Z,32.30
2023-02-09T02:44:10.825Z,33.00
2023-02-09T02:45:10.832Z,32.70
2023-02-09T02:46:10.806Z,31.70
2023-02-09T02:47:10.831Z,33.60
2023-02-09T02:48:10.752Z,34.40
2023-02-09T02:49:10.792Z,33.30
2023-02-09T02:50:10.751Z,37.00
2023-02-09T02:51:10.764Z,34.10
2023-02-09T02:52:10.737Z,33.30
2023-02-09T02:53:10.728Z,33.60
2023-02-09T02:54:10.699Z,32.10
2023-02-09T02:55:10.713Z,29.80
2023-02-09T02:56:10.692Z,33.70
2023-02-09T02:57:10.683Z,33.60
2023-02-09T02:58:10.633Z,34.10
2023-02-09T02:59:10.669Z,33.70
2023-02-09T03:00:10.651Z,30.40
2023-02-09T03:01:10.667Z,34.30
2023-02-09T03:02:10.581Z,34.00
2023-02-09T03:03:10.595Z,32.70
2023-02-09T03:04:10.591Z,32.20
2023-02-09T03:05:10.624Z,32.70
2023-02-09T03:06:10.556Z,31.10
2023-02-09T03:07:10.549Z,35.80
2023-02-09T03:08:10.523Z,34.10
2023-02-09T03:09:10.539Z,38.30
2023-02-09T03:10:10.511Z,35.40
2023-02-09T03:11:10.556Z,37.70
2023-02-09T03:12:10.472Z,36.90
2023-02-09T03:13:10.484Z,39.50
2023-02-09T03:14:10.436Z,37.40
2023-02-09T03:19:51.269Z,32.00
2023-02-09T03:20:52.259Z,32.60
2023-02-09T03:21:52.256Z,31.30
2023-02-09T03:22:52.196Z,31.30
2023-02-09T03:23:52.226Z,33.50
2023-02-09T03:24:52.167Z,37.50
2023-02-09T03:25:52.181Z,36.80
2023-02-09T03:26:52.147Z,35.90
2023-02-09T03:27:52.232Z,31.30
2023-02-09T03:28:52.120Z,32.10
2023-02-09T03:29:52.140Z,33.80
2023-02-09T03:30:52.206Z,35.50
2023-02-09T03:31:52.206Z,34.70
2023-02-09T03:32:52.078Z,39.60
2023-02-09T03:33:52.086Z,36.40
2023-02-09T03:34:52.050Z,34.90
2023-02-09T03:35:52.100Z,36.00
2023-02-09T03:36:52.045Z,36.90
2023-02-09T03:37:52.059Z,39.90
2023-02-09T03:38:51.992Z,33.50
2023-02-09T03:39:52.006Z,32.20
2023-02-09T03:40:52.002Z,35.70
2023-02-09T03:41:52.005Z,43.60
2023-02-09T03:42:51.948Z,48.50
2023-02-09T03:43:51.966Z,49.00
2023-02-09T03:44:51.916Z,45.10
2023-02-09T03:45:51.934Z,44.90
2023-02-09T03:46:52.050Z,37.40
2023-02-09T03:47:51.924Z,36.40
2023-02-09T03:48:51.885Z,36.30
2023-02-09T03:49:51.910Z,33.40
2023-02-09T03:50:51.872Z,34.80
2023-02-09T03:51:51.865Z,35.00
2023-02-09T03:52:51.828Z,33.20
2023-02-09T03:53:51.840Z,37.60
2023-02-09T03:54:51.811Z,34.50
2023-02-09T03:55:51.809Z,34.20
2023-02-09T03:56:51.788Z,35.00
2023-02-09T03:57:51.785Z,34.90
2023-02-09T03:58:51.780Z,36.00
2023-02-09T03:59:51.747Z,38.20
2023-02-09T04:00:51.806Z,34.80
2023-02-09T04:01:51.737Z,34.50
2023-02-09T04:02:51.784Z,34.80
2023-02-09T04:03:51.719Z,33.70
2023-02-09T04:04:51.680Z,34.90
2023-02-09T04:05:51.680Z,35.60
2023-02-09T04:06:51.653Z,33.50
2023-02-09T04:07:51.683Z,32.40
2023-02-09T04:08:51.628Z,34.20
2023-02-09T04:09:51.625Z,36.00
2023-02-09T04:10:51.605Z,34.30
2023-02-09T04:11:51.617Z,34.30
2023-02-09T04:12:51.620Z,37.10
2023-02-09T04:13:51.596Z,35.80
2023-02-09T04:14:51.603Z,53.30
2023-02-09T04:15:51.602Z,51.20
2023-02-09T04:16:51.517Z,37.10
2023-02-09T04:17:51.562Z,38.70
2023-02-09T04:18:51.503Z,39.90
2023-02-09T04:19:51.516Z,34.90
2023-02-09T04:20:51.514Z,36.30
2023-02-09T04:21:51.469Z,33.30
2023-02-09T04:22:51.474Z,30.30
2023-02-09T04:23:51.430Z,30.50
2023-02-09T04:24:51.446Z,31.00
2023-02-09T04:25:51.429Z,33.70
2023-02-09T04:26:51.426Z,35.30
2023-02-09T04:27:51.403Z,31.50
2023-02-09T04:28:51.413Z,31.50
2023-02-09T04:29:51.369Z,33.50
2023-02-09T04:30:51.411Z,34.10
2023-02-09T04:31:51.388Z,39.90
2023-02-09T04:32:51.359Z,35.50
2023-02-09T04:33:51.331Z,35.70
2023-02-09T04:34:51.362Z,39.90
2023-02-09T04:35:51.299Z,33.30
2023-02-09T04:36:51.318Z,30.70
2023-02-09T04:37:51.277Z,33.60
2023-02-09T04:38:51.296Z,35.20
2023-02-09T04:39:51.272Z,32.50
2023-02-09T04:40:51.280Z,34.50
2023-02-09T04:41:51.229Z,96.30
2023-02-09T04:42:51.220Z,44.00
2023-02-09T04:43:51.187Z,33.30
2023-02-09T04:44:51.206Z,33.00
2023-02-09T04:45:51.305Z,47.70
2023-02-09T04:46:51.224Z,51.60
2023-02-09T04:47:51.140Z,36.40
2023-02-09T04:48:51.150Z,35.60
2023-02-09T04:49:51.121Z,35.70
2023-02-09T04:50:51.126Z,37.20
2023-02-09T04:51:51.121Z,36.20
2023-02-09T04:52:51.105Z,32.70
2023-02-09T04:53:51.060Z,34.00
2023-02-09T04:54:51.096Z,31.40
2023-02-09T04:55:51.053Z,32.80
2023-02-09T04:56:51.053Z,32.90
2023-02-09T04:57:51.031Z,34.00
2023-02-09T04:58:51.032Z,32.90
2023-02-09T04:59:51.003Z,33.40
2023-02-09T05:00:51.029Z,35.00
2023-02-09T05:01:50.984Z,31.50
2023-02-09T05:02:51.032Z,36.30
2023-02-09T05:03:50.990Z,37.20
2023-02-09T05:04:50.957Z,37.90
2023-02-09T05:05:50.921Z,40.20
2023-02-09T05:06:50.931Z,41.10
2023-02-09T05:07:50.893Z,36.00
2023-02-09T05:08:50.916Z,36.40
2023-02-09T05:09:50.880Z,34.90
2023-02-09T05:10:50.894Z,38.30
2023-02-09T05:11:50.853Z,39.30
2023-02-09T05:12:50.871Z,45.50
2023-02-09T05:13:50.829Z,49.80
2023-02-09T05:14:50.840Z,48.70
2023-02-09T05:15:50.806Z,45.90
2023-02-09T05:16:50.890Z,41.80
2023-02-09T05:17:50.793Z,43.30
2023-02-09T05:18:50.789Z,47.00
2023-02-09T05:19:50.749Z,47.80
2023-02-09T05:20:50.778Z,42.40
2023-02-09T05:21:50.717Z,48.50
2023-02-09T05:22:50.765Z,43.00
2023-02-09T05:23:50.696Z,44.40
2023-02-09T05:24:50.765Z,42.10
2023-02-09T05:25:50.671Z,46.30
2023-02-09T05:26:51.667Z,46.30
2023-02-09T05:27:50.705Z,43.00
2023-02-09T05:28:50.657Z,43.70
2023-02-09T05:29:50.629Z,39.70
2023-02-09T05:30:50.658Z,40.20
2023-02-09T05:31:50.676Z,43.00
2023-02-09T05:32:50.639Z,43.40
2023-02-09T05:33:50.569Z,39.30
2023-02-09T05:34:50.601Z,38.90
2023-02-09T05:35:50.565Z,41.50
2023-02-09T05:36:50.565Z,44.60
2023-02-09T05:37:50.556Z,43.40
2023-02-09T05:38:50.533Z,41.90
2023-02-09T05:39:50.505Z,44.80
2023-02-09T05:40:51.045Z,43.60
2023-02-09T05:41:50.498Z,45.70
2023-02-09T05:42:50.556Z,43.60
2023-02-09T05:43:50.469Z,44.00
2023-02-09T05:44:50.468Z,40.60
2023-02-09T05:45:50.526Z,38.90
2023-02-09T05:46:50.461Z,40.30
2023-02-09T05:47:50.408Z,40.50
2023-02-09T05:48:50.415Z,40.10
2023-02-09T05:49:50.380Z,41.00
2023-02-09T05:50:50.392Z,42.00
2023-02-09T05:51:50.373Z,36.60
2023-02-09T05:52:50.356Z,39.20
2023-02-09T05:53:50.314Z,34.80
2023-02-09T05:54:50.351Z,38.70
2023-02-09T05:55:50.305Z,34.60
2023-02-09T05:56:50.303Z,38.40
2023-02-09T05:57:50.290Z,35.50
2023-02-09T05:58:50.290Z,37.60
2023-02-09T05:59:50.294Z,33.90
2023-02-09T06:00:50.277Z,38.10
2023-02-09T06:01:50.268Z,35.90
2023-02-09T06:02:50.263Z,35.10
2023-02-09T06:03:50.209Z,36.90
2023-02-09T06:04:50.220Z,37.10
2023-02-09T06:05:50.170Z,37.70
2023-02-09T06:06:50.200Z,41.90
2023-02-09T06:07:50.149Z,39.60
2023-02-09T06:08:50.179Z,38.90
2023-02-09T06:09:50.132Z,42.80
2023-02-09T06:10:50.151Z,45.30
2023-02-09T06:11:50.118Z,39.50
2023-02-09T06:12:50.099Z,41.00
2023-02-09T06:13:50.079Z,41.00
2023-02-09T06:14:50.100Z,42.00
2023-02-09T06:15:50.079Z,47.00
2023-02-09T06:16:50.084Z,51.10
2023-02-09T06:17:50.028Z,47.80
2023-02-09T06:18:50.042Z,46.00
2023-02-09T06:19:50.016Z,43.50
2023-02-09T06:20:50.023Z,39.80
2023-02-09T06:21:49.979Z,39.10
2023-02-09T06:22:50.011Z,37.60
2023-02-09T06:23:49.945Z,36.30
2023-02-09T06:24:49.970Z,36.70
2023-02-09T06:25:49.959Z,37.50
2023-02-09T06:26:49.945Z,36.40
2023-02-09T06:27:50.067Z,35.40
2023-02-09T06:28:49.947Z,34.30
2023-02-09T06:29:49.880Z,34.50
2023-02-09T06:30:50.552Z,35.30
2023-02-09T06:31:50.019Z,37.60
2023-02-09T06:32:49.915Z,35.40
2023-02-09T06:33:49.835Z,34.70
2023-02-09T06:34:49.890Z,32.60
2023-02-09T06:35:52.234Z,35.20
2023-02-09T06:36:49.813Z,36.20
2023-02-09T06:37:49.787Z,39.00
2023-02-09T06:38:49.792Z,38.90
2023-02-09T06:39:49.790Z,34.00
2023-02-09T06:40:49.785Z,36.20
2023-02-09T06:41:49.753Z,34.90
2023-02-09T06:42:49.779Z,32.50
2023-02-09T06:43:49.725Z,34.00
2023-02-09T06:44:49.733Z,34.30
2023-02-09T06:45:49.703Z,34.20
2023-02-09T06:46:49.719Z,33.20
2023-02-09T06:47:49.676Z,35.30
2023-02-09T06:48:49.675Z,35.70
2023-02-09T06:49:49.670Z,35.90
2023-02-09T06:50:49.661Z,33.40
2023-02-09T06:51:49.646Z,33.00
2023-02-09T06:52:49.625Z,32.50
2023-02-09T06:53:49.581Z,31.80
2023-02-09T06:54:49.606Z,33.60
2023-02-09T06:55:49.568Z,34.70
2023-02-09T06:56:49.620Z,36.00
2023-02-09T06:57:49.532Z,34.00
2023-02-09T06:58:49.585Z,30.80
2023-02-09T06:59:49.540Z,35.70
2023-02-09T07:00:49.540Z,35.70
2023-02-09T07:01:49.533Z,35.10
2023-02-09T07:02:49.582Z,35.70
2023-02-09T07:03:49.459Z,35.20
2023-02-09T07:04:49.509Z,34.30
2023-02-09T07:05:49.438Z,34.20
2023-02-09T07:06:49.455Z,33.00
2023-02-09T07:07:49.415Z,35.20
2023-02-09T07:08:49.441Z,35.50
2023-02-09T07:09:49.422Z,35.00
2023-02-09T07:10:49.421Z,37.30
2023-02-09T07:11:49.344Z,34.60
2023-02-09T07:12:49.399Z,35.60
2023-02-09T07:13:49.330Z,32.70
2023-02-09T07:14:49.388Z,32.80
2023-02-09T07:15:49.408Z,33.20
2023-02-09T07:16:49.356Z,36.50
2023-02-09T07:17:49.288Z,35.00
2023-02-09T07:18:49.354Z,31.50
2023-02-09T07:19:49.323Z,32.90
2023-02-09T07:20:49.304Z,34.10
2023-02-09T07:21:49.266Z,34.50
2023-02-09T07:22:49.255Z,33.90
2023-02-09T07:23:49.216Z,35.20
2023-02-09T07:24:49.250Z,35.20
2023-02-09T07:25:49.217Z,34.60
2023-02-09T07:26:49.213Z,37.00
2023-02-09T07:27:49.196Z,32.60
2023-02-09T07:28:49.179Z,33.30
2023-02-09T07:29:49.139Z,34.50
2023-02-09T07:30:49.409Z,35.20
2023-02-09T07:31:49.183Z,33.90
2023-02-09T07:32:49.144Z,36.10
2023-02-09T07:33:49.127Z,34.70
2023-02-09T07:34:49.114Z,33.80
2023-02-09T07:35:49.088Z,33.40
2023-02-09T07:36:49.079Z,35.30
2023-02-09T07:37:49.057Z,31.60
2023-02-09T07:38:49.048Z,37.00
2023-02-09T07:39:49.013Z,38.80
2023-02-09T07:40:49.030Z,39.50
2023-02-09T07:41:49.010Z,36.50
2023-02-09T07:42:49.001Z,36.60
2023-02-09T07:43:48.974Z,35.50
2023-02-09T07:44:48.985Z,35.90
2023-02-09T07:45:48.937Z,38.70
2023-02-09T07:46:49.028Z,35.40
2023-02-09T07:47:48.939Z,32.90
2023-02-09T07:48:48.921Z,32.40
2023-02-09T07:49:48.947Z,32.00
2023-02-09T07:50:48.902Z,34.10
2023-02-09T07:51:48.894Z,36.70
2023-02-09T07:52:48.880Z,35.10
2023-02-09T07:53:48.865Z,34.30
2023-02-09T07:54:48.848Z,34.50
2023-02-09T07:55:48.883Z,33.00
2023-02-09T07:56:48.880Z,35.40
2023-02-09T07:57:48.802Z,38.00
2023-02-09T07:58:48.783Z,33.60
2023-02-09T07:59:48.751Z,38.70
2023-02-09T08:00:49.271Z,42.10
2023-02-09T08:01:48.822Z,54.70
2023-02-09T08:02:48.754Z,53.90
2023-02-09T08:03:48.710Z,50.30
2023-02-09T08:04:48.826Z,45.20
2023-02-09T08:05:48.994Z,45.80
2023-02-09T08:06:48.697Z,46.20
2023-02-09T08:07:48.688Z,46.00
2023-02-09T08:08:48.724Z,45.90
2023-02-09T08:09:48.632Z,49.10
2023-02-09T08:10:48.643Z,50.50
2023-02-09T08:11:48.681Z,41.90
2023-02-09T08:12:48.607Z,42.40
2023-02-09T08:13:48.657Z,38.30
2023-02-09T08:14:48.671Z,40.10
2023-02-09T08:15:48.960Z,40.80
2023-02-09T08:16:48.579Z,41.00
2023-02-09T08:17:48.543Z,41.50
2023-02-09T08:18:48.552Z,43.50
2023-02-09T08:19:48.522Z,42.20
2023-02-09T08:20:48.495Z,42.80
2023-02-09T08:21:48.481Z,39.70
2023-02-09T08:22:48.491Z,55.10
2023-02-09T08:23:48.500Z,56.10
2023-02-09T08:24:48.476Z,55.50
2023-02-09T08:25:48.787Z,59.20
2023-02-09T08:26:48.443Z,54.00
2023-02-09T08:27:48.421Z,53.40
2023-02-09T08:28:48.499Z,54.20
2023-02-09T08:29:49.130Z,55.90
2023-02-09T08:30:48.456Z,47.30
2023-02-09T08:31:48.408Z,42.70
2023-02-09T08:32:48.352Z,37.20
2023-02-09T08:33:48.330Z,37.80
2023-02-09T08:34:48.337Z,34.40
2023-02-09T08:35:48.747Z,38.00
2023-02-09T08:36:48.322Z,36.10
2023-02-09T08:37:48.294Z,37.20
2023-02-09T08:38:48.326Z,37.10
2023-02-09T08:39:48.284Z,37.10
2023-02-09T08:40:48.232Z,34.40
2023-02-09T08:41:48.273Z,33.40
2023-02-09T08:42:48.197Z,35.10
2023-02-09T08:43:48.193Z,38.50
2023-02-09T08:44:48.190Z,39.10
2023-02-09T08:45:48.894Z,41.80
2023-02-09T08:46:48.414Z,40.60
2023-02-09T08:47:48.171Z,34.20
2023-02-09T08:48:48.152Z,37.50
2023-02-09T08:49:48.178Z,35.00
2023-02-09T08:50:48.119Z,33.10
2023-02-09T08:51:48.120Z,35.70
2023-02-09T08:52:48.072Z,33.10
2023-02-09T08:53:48.105Z,34.10
2023-02-09T08:54:48.088Z,33.80
2023-02-09T08:55:48.673Z,32.80
2023-02-09T08:56:48.048Z,31.60
2023-02-09T08:57:48.038Z,32.50
2023-02-09T08:58:48.002Z,34.70
2023-02-09T08:59:48.055Z,34.10
2023-02-09T09:00:48.055Z,32.50
2023-02-09T09:01:48.056Z,32.30
2023-02-09T09:02:47.972Z,30.90
2023-02-09T09:03:48.090Z,31.80
2023-02-09T09:04:47.925Z,33.40
2023-02-09T09:05:48.209Z,31.00
2023-02-09T09:06:47.943Z,29.00
2023-02-09T09:07:47.924Z,29.00
2023-02-09T09:08:47.882Z,31.10
2023-02-09T09:09:47.916Z,28.60
2023-02-09T09:10:47.849Z,32.10
2023-02-09T09:11:47.874Z,33.00
2023-02-09T09:12:47.827Z,31.90
2023-02-09T09:13:47.838Z,29.40
2023-02-09T09:14:47.841Z,29.00
2023-02-09T09:15:48.228Z,29.90
2023-02-09T09:16:47.809Z,27.50
2023-02-09T09:17:47.785Z,29.70
2023-02-09T09:18:47.790Z,28.10
2023-02-09T09:19:47.762Z,30.40
2023-02-09T09:20:47.719Z,26.30
2023-02-09T09:21:47.730Z,29.60
2023-02-09T09:22:47.706Z,26.00
2023-02-09T09:23:47.733Z,26.20
2023-02-09T09:24:47.660Z,27.70
2023-02-09T09:25:48.036Z,27.20
2023-02-09T09:26:47.650Z,26.00
2023-02-09T09:27:47.659Z,27.90
2023-02-09T09:28:47.626Z,26.60
2023-02-09T09:29:47.661Z,27.70
2023-02-09T09:30:47.606Z,27.80
2023-02-09T09:31:47.627Z,29.50
2023-02-09T09:32:47.611Z,27.30
2023-02-09T09:33:47.585Z,29.30
2023-02-09T09:34:47.531Z,24.10
2023-02-09T09:35:47.935Z,27.10
2023-02-09T09:36:47.512Z,31.90
2023-02-09T09:37:47.537Z,26.10
2023-02-09T09:38:47.508Z,26.30
2023-02-09T09:39:47.503Z,29.30
2023-02-09T09:40:47.467Z,28.30
2023-02-09T09:41:47.487Z,26.10
2023-02-09T09:42:47.451Z,28.00
2023-02-09T09:43:47.446Z,31.50
2023-02-09T09:44:47.549Z,28.00
2023-02-09T09:45:47.853Z,27.60
2023-02-09T09:46:47.378Z,26.90
2023-02-09T09:47:47.418Z,28.60
2023-02-09T09:48:47.376Z,28.70
2023-02-09T09:49:47.413Z,27.90
2023-02-09T09:50:47.365Z,28.10
2023-02-09T09:51:47.362Z,27.30
2023-02-09T09:52:47.299Z,27.90
2023-02-09T09:53:47.344Z,28.60
2023-02-09T09:54:47.285Z,28.20
2023-02-09T09:55:47.651Z,27.10
2023-02-09T09:56:47.256Z,28.60
2023-02-09T09:57:47.261Z,27.00
2023-02-09T09:58:47.253Z,27.80
2023-02-09T09:59:47.235Z,26.60
2023-02-09T10:00:47.207Z,25.40
2023-02-09T10:01:47.206Z,25.40
2023-02-09T10:02:47.160Z,28.10
2023-02-09T10:03:47.206Z,25.00
2023-02-09T10:04:47.174Z,25.00
2023-02-09T10:05:47.581Z,26.30
2023-02-09T10:06:47.116Z,27.60
2023-02-09T10:07:47.157Z,27.50
2023-02-09T10:08:47.118Z,26.50
2023-02-09T10:09:47.110Z,25.80
2023-02-09T10:10:47.349Z,26.80
2023-02-09T10:11:47.066Z,28.10
2023-02-09T10:12:47.034Z,28.20
2023-02-09T10:13:47.077Z,29.40
2023-02-09T10:14:47.011Z,27.10
2023-02-09T10:15:47.382Z,25.50
2023-02-09T10:16:47.060Z,28.20
2023-02-09T10:17:46.991Z,25.10
2023-02-09T10:18:46.972Z,26.00
2023-02-09T10:19:46.955Z,27.90
2023-02-09T10:20:46.938Z,29.10
2023-02-09T10:21:46.935Z,27.00
2023-02-09T10:22:46.899Z,31.10
2023-02-09T10:23:46.913Z,35.20
2023-02-09T10:24:46.893Z,27.40
2023-02-09T10:25:47.262Z,29.10
2023-02-09T10:26:46.853Z,27.90
2023-02-09T10:27:46.855Z,29.30
2023-02-09T10:28:46.853Z,26.50
2023-02-09T10:29:46.847Z,31.80
2023-02-09T10:30:46.970Z,31.40
2023-02-09T10:31:47.002Z,30.70
2023-02-09T10:32:46.758Z,30.50
2023-02-09T10:33:46.848Z,31.80
2023-02-09T10:34:46.764Z,30.20
2023-02-09T10:35:47.165Z,30.60
2023-02-09T10:36:46.717Z,35.20
2023-02-09T10:37:46.729Z,32.00
2023-02-09T10:38:46.679Z,35.30
2023-02-09T10:39:46.735Z,34.60
2023-02-09T10:40:46.683Z,33.20
2023-02-09T10:41:46.682Z,32.80
2023-02-09T10:42:46.621Z,34.10
2023-02-09T10:43:46.661Z,34.00
2023-02-09T10:44:46.631Z,36.20
2023-02-09T10:45:46.973Z,37.50
2023-02-09T10:46:46.600Z,35.20
2023-02-09T10:47:46.592Z,36.30
2023-02-09T10:48:46.562Z,35.80
2023-02-09T10:49:46.598Z,36.40
2023-02-09T10:50:46.552Z,34.10
2023-02-09T10:51:46.552Z,36.70
2023-02-09T10:52:46.488Z,37.70
2023-02-09T10:53:46.530Z,36.00
2023-02-09T10:54:46.486Z,36.70
2023-02-09T10:55:46.835Z,39.60
2023-02-09T10:56:46.479Z,39.40
2023-02-09T10:57:46.485Z,35.70
2023-02-09T10:58:46.414Z,36.70
2023-02-09T10:59:46.431Z,36.70
2023-02-09T11:00:46.445Z,33.90
2023-02-09T11:01:46.443Z,36.30
2023-02-09T11:02:46.377Z,39.40
2023-02-09T11:03:46.402Z,35.70
2023-02-09T11:04:46.403Z,39.70
2023-02-09T11:05:46.667Z,37.80
2023-02-09T11:06:46.429Z,41.70
2023-02-09T11:07:46.340Z,39.30
2023-02-09T11:08:46.335Z,40.60
2023-02-09T11:09:46.308Z,41.80
2023-02-09T11:10:46.272Z,39.40
2023-02-09T11:11:46.293Z,45.80
2023-02-09T11:12:46.291Z,47.90
2023-02-09T11:13:46.249Z,40.50
2023-02-09T11:14:46.203Z,39.60
2023-02-09T11:15:46.581Z,40.00
2023-02-09T11:16:46.294Z,39.00
2023-02-09T11:17:46.202Z,41.30
2023-02-09T11:18:46.197Z,43.80
2023-02-09T11:19:46.169Z,41.00
2023-02-09T11:20:46.149Z,40.70
2023-02-09T11:21:46.195Z,45.60
2023-02-09T11:22:46.117Z,41.40
2023-02-09T11:23:46.143Z,45.20
2023-02-09T11:24:46.088Z,42.20
2023-02-09T11:25:46.566Z,44.00
2023-02-09T11:26:46.073Z,46.40
2023-02-09T11:27:46.067Z,40.80
2023-02-09T11:28:46.024Z,42.20
2023-02-09T11:29:46.070Z,43.00
2023-02-09T11:30:46.534Z,43.10
2023-02-09T11:31:46.197Z,48.00
2023-02-09T11:32:46.004Z,43.60
2023-02-09T11:33:45.986Z,46.70
2023-02-09T11:34:45.963Z,42.50
2023-02-09T11:35:45.979Z,43.40
2023-02-09T11:36:45.921Z,45.00
2023-02-09T11:37:45.936Z,44.00
2023-02-09T11:38:45.901Z,41.10
2023-02-09T11:39:45.930Z,42.00
2023-02-09T11:40:46.301Z,41.90
2023-02-09T11:41:45.899Z,44.90
2023-02-09T11:42:45.868Z,42.70
2023-02-09T11:43:45.885Z,43.70
2023-02-09T11:44:45.811Z,42.50
2023-02-09T11:45:45.837Z,44.20
2023-02-09T11:46:45.890Z,40.20
2023-02-09T11:47:45.811Z,43.30
2023-02-09T11:48:45.781Z,43.00
2023-02-09T11:49:45.778Z,44.40
2023-02-09T11:50:46.165Z,48.50
2023-02-09T11:51:45.789Z,43.90
2023-02-09T11:52:45.765Z,44.40
2023-02-09T11:53:45.746Z,48.30
2023-02-09T11:54:45.693Z,45.20
2023-02-09T11:55:45.702Z,45.80
2023-02-09T11:56:45.700Z,45.60
2023-02-09T11:57:45.701Z,44.30
2023-02-09T11:58:45.679Z,48.90
2023-02-09T11:59:45.648Z,43.60
2023-02-09T12:00:55.956Z,44.00
2023-02-09T12:01:45.638Z,47.10
2023-02-09T12:02:45.663Z,44.80
2023-02-09T12:03:45.614Z,46.30
2023-02-09T12:04:45.574Z,48.00
2023-02-09T12:05:45.574Z,45.10
2023-02-09T12:06:45.580Z,42.10
2023-02-09T12:07:45.566Z,46.70
2023-02-09T12:08:45.533Z,44.50
2023-02-09T12:09:45.523Z,52.80
2023-02-09T12:10:45.669Z,47.50
2023-02-09T12:11:45.490Z,45.90
2023-02-09T12:12:45.469Z,47.40
2023-02-09T12:13:45.473Z,44.50
2023-02-09T12:14:45.472Z,43.60
2023-02-09T12:15:45.506Z,49.00
2023-02-09T12:16:45.405Z,47.50
2023-02-09T12:17:45.428Z,48.30
2023-02-09T12:18:45.428Z,46.20
2023-02-09T12:19:45.441Z,48.10
2023-02-09T12:20:45.689Z,49.70
2023-02-09T12:21:45.381Z,46.80
2023-02-09T12:22:45.334Z,49.60
2023-02-09T12:23:45.347Z,46.30
2023-02-09T12:24:45.305Z,47.60
2023-02-09T12:25:45.346Z,47.70
2023-02-09T12:26:45.295Z,46.50
2023-02-09T12:27:45.283Z,47.80
2023-02-09T12:28:45.261Z,41.90
2023-02-09T12:29:45.261Z,47.30
2023-02-09T12:30:45.586Z,43.80
2023-02-09T12:31:46.446Z,42.70
2023-02-09T12:32:45.193Z,48.20
2023-02-09T12:33:45.215Z,44.40
2023-02-09T12:34:45.176Z,46.80
2023-02-09T12:35:45.193Z,42.90
2023-02-09T12:36:45.157Z,49.40
2023-02-09T12:37:45.197Z,45.60
2023-02-09T12:38:49.321Z,50.20
2023-02-09T12:39:45.143Z,54.00
2023-02-09T12:40:45.406Z,71.70
2023-02-09T12:41:45.163Z,48.10
2023-02-09T12:42:45.052Z,60.80
2023-02-09T12:43:45.144Z,47.70
2023-02-09T12:44:45.033Z,48.90
2023-02-09T12:45:45.592Z,46.30
2023-02-09T12:46:45.212Z,44.60
2023-02-09T12:47:45.030Z,46.10
2023-02-09T12:48:44.992Z,55.60
2023-02-09T12:49:45.006Z,50.40
2023-02-09T12:50:44.976Z,49.20
2023-02-09T12:51:44.971Z,43.20
2023-02-09T12:52:44.990Z,44.20
2023-02-09T12:53:44.925Z,41.30
2023-02-09T12:54:44.937Z,57.40
2023-02-09T12:55:45.384Z,56.10
2023-02-09T12:56:44.907Z,45.30